Kaneville, Illinois
Current Conditions -  °F | °C
As of 6:52 AM on Monday 20 Oct 2014 (Local Time) from KARR Reporting Station
Clear Clear  
Wind Chill: 41°   Ceiling: Unl
Heat Index: 45°   Visibility: 9mi
Dew Point: 41°   Wind: 7mph
Humidity: 86%   Direction: 250°WSW
Pressure: 29.82"   Gusts: NA
Location:  41.84°N, 88.52°W
Report Text: KARR 201152Z 25006KT 9SM CLR 07/05 A2982 RMK AO2 SLP101 T00720050 10100 20067 55005
Loading
Personal Weather Stations






























Interactive Weather Map
Tropical Storm Tracking
New forecast layout! Learn more

10-Day Weather Forecast

Advertisements
Track Severe Weather on mobile